sensor_id;sensor_type;location;lat;lon;timestamp;pressure;altitude;pressure_sealevel;temperature;humidity
47716;BME280;33476;50.984;3.538;2023-01-29T00:02:11;103199.00;;;4.26;58.62
47716;BME280;33476;50.984;3.538;2023-01-29T00:04:36;103178.31;;;4.27;58.64
47716;BME280;33476;50.984;3.538;2023-01-29T00:07:01;103178.31;;;4.27;58.64
47716;BME280;33476;50.984;3.538;2023-01-29T00:09:27;103181.84;;;4.31;58.46
47716;BME280;33476;50.984;3.538;2023-01-29T00:11:52;103172.34;;;4.31;58.62
47716;BME280;33476;50.984;3.538;2023-01-29T00:14:18;103174.94;;;4.31;58.52
47716;BME280;33476;50.984;3.538;2023-01-29T00:16:44;103171.44;;;4.29;58.40
47716;BME280;33476;50.984;3.538;2023-01-29T00:19:09;103166.22;;;4.26;58.10
47716;BME280;33476;50.984;3.538;2023-01-29T00:21:34;103169.66;;;4.25;58.72
47716;BME280;33476;50.984;3.538;2023-01-29T00:24:00;103165.34;;;4.24;58.74
47716;BME280;33476;50.984;3.538;2023-01-29T00:26:26;103168.81;;;4.26;58.61
47716;BME280;33476;50.984;3.538;2023-01-29T00:28:52;103159.31;;;4.25;58.82
47716;BME280;33476;50.984;3.538;2023-01-29T00:31:20;103157.59;;;4.26;58.38
47716;BME280;33476;50.984;3.538;2023-01-29T00:33:47;103161.94;;;4.27;58.79
47716;BME280;33476;50.984;3.538;2023-01-29T00:36:14;103160.09;;;4.21;58.41
47716;BME280;33476;50.984;3.538;2023-01-29T00:38:40;103154.09;;;4.22;58.90
47716;BME280;33476;50.984;3.538;2023-01-29T00:41:13;103154.91;;;4.19;58.56
47716;BME280;33476;50.984;3.538;2023-01-29T00:43:58;103144.66;;;4.24;58.71
47716;BME280;33476;50.984;3.538;2023-01-29T00:46:43;103154.91;;;4.19;58.52
47716;BME280;33476;50.984;3.538;2023-01-29T00:49:09;103153.16;;;4.17;58.76
47716;BME280;33476;50.984;3.538;2023-01-29T00:51:35;103149.69;;;4.16;59.01
47716;BME280;33476;50.984;3.538;2023-01-29T00:54:00;103145.41;;;4.17;58.69
47716;BME280;33476;50.984;3.538;2023-01-29T00:56:27;103148.75;;;4.13;59.26
47716;BME280;33476;50.984;3.538;2023-01-29T00:58:53;103143.69;;;4.17;58.78
47716;BME280;33476;50.984;3.538;2023-01-29T01:01:19;103148.88;;;4.19;58.63
47716;BME280;33476;50.984;3.538;2023-01-29T01:04:04;103145.44;;;4.21;58.65
47716;BME280;33476;50.984;3.538;2023-01-29T01:06:30;103137.69;;;4.21;58.68
47716;BME280;33476;50.984;3.538;2023-01-29T01:08:55;103143.72;;;4.20;58.58
47716;BME280;33476;50.984;3.538;2023-01-29T01:11:39;103132.47;;;4.18;58.41
47716;BME280;33476;50.984;3.538;2023-01-29T01:14:05;103132.47;;;4.17;59.07
47716;BME280;33476;50.984;3.538;2023-01-29T01:16:30;103139.41;;;4.21;58.61
47716;BME280;33476;50.984;3.538;2023-01-29T01:18:55;103149.81;;;4.22;59.05
47716;BME280;33476;50.984;3.538;2023-01-29T01:21:21;103155.03;;;4.27;58.72
47716;BME280;33476;50.984;3.538;2023-01-29T01:23:46;103152.41;;;4.24;59.00
47716;BME280;33476;50.984;3.538;2023-01-29T01:26:12;103138.59;;;4.22;58.92
47716;BME280;33476;50.984;3.538;2023-01-29T01:28:37;103124.84;;;4.26;58.89
47716;BME280;33476;50.984;3.538;2023-01-29T01:31:08;103124.94;;;4.31;59.11
47716;BME280;33476;50.984;3.538;2023-01-29T01:33:34;103122.41;;;4.37;58.62
47716;BME280;33476;50.984;3.538;2023-01-29T01:36:03;103125.84;;;4.37;58.72
47716;BME280;33476;50.984;3.538;2023-01-29T01:38:28;103123.34;;;4.40;58.58
47716;BME280;33476;50.984;3.538;2023-01-29T01:40:54;103119.91;;;4.41;58.59
47716;BME280;33476;50.984;3.538;2023-01-29T01:43:19;103119.81;;;4.37;58.49
47716;BME280;33476;50.984;3.538;2023-01-29T01:45:44;103118.03;;;4.31;58.93
47716;BME280;33476;50.984;3.538;2023-01-29T01:48:12;103120.63;;;4.31;59.00
47716;BME280;33476;50.984;3.538;2023-01-29T01:50:44;103124.97;;;4.35;58.64
47716;BME280;33476;50.984;3.538;2023-01-29T01:53:14;103124.13;;;4.36;58.73
47716;BME280;33476;50.984;3.538;2023-01-29T01:55:46;103120.72;;;4.39;58.49
47716;BME280;33476;50.984;3.538;2023-01-29T01:58:18;103133.69;;;4.40;58.45
47716;BME280;33476;50.984;3.538;2023-01-29T02:00:45;103124.13;;;4.38;58.67
47716;BME280;33476;50.984;3.538;2023-01-29T02:03:11;103128.44;;;4.37;58.90
47716;BME280;33476;50.984;3.538;2023-01-29T02:05:57;103144.91;;;4.42;58.60
47716;BME280;33476;50.984;3.538;2023-01-29T02:11:26;103141.56;;;4.48;58.44
47716;BME280;33476;50.984;3.538;2023-01-29T02:13:51;103154.50;;;4.48;58.85
47716;BME280;33476;50.984;3.538;2023-01-29T02:16:19;103150.19;;;4.47;58.67
47716;BME280;33476;50.984;3.538;2023-01-29T02:18:45;103155.38;;;4.50;58.61
47716;BME280;33476;50.984;3.538;2023-01-29T02:38:10;103135.59;;;4.54;58.62
47716;BME280;33476;50.984;3.538;2023-01-29T02:40:42;103133.94;;;4.57;58.42
47716;BME280;33476;50.984;3.538;2023-01-29T02:46:31;103141.72;;;4.60;58.75
47716;BME280;33476;50.984;3.538;2023-01-29T02:49:08;103137.44;;;4.62;58.74
47716;BME280;33476;50.984;3.538;2023-01-29T02:51:49;103140.84;;;4.60;58.82
47716;BME280;33476;50.984;3.538;2023-01-29T02:54:20;103132.25;;;4.62;58.87
47716;BME280;33476;50.984;3.538;2023-01-29T02:56:57;103137.44;;;4.62;59.01
47716;BME280;33476;50.984;3.538;2023-01-29T02:59:38;103131.41;;;4.63;58.57
47716;BME280;33476;50.984;3.538;2023-01-29T03:02:09;103127.91;;;4.60;58.94
47716;BME280;33476;50.984;3.538;2023-01-29T03:04:40;103127.03;;;4.59;58.92
47716;BME280;33476;50.984;3.538;2023-01-29T03:07:15;103111.50;;;4.58;58.64
47716;BME280;33476;50.984;3.538;2023-01-29T03:10:03;103127.91;;;4.60;58.99
47716;BME280;33476;50.984;3.538;2023-01-29T03:12:32;103132.22;;;4.58;58.89
47716;BME280;33476;50.984;3.538;2023-01-29T03:15:07;103128.75;;;4.57;59.16
47716;BME280;33476;50.984;3.538;2023-01-29T03:17:40;103126.22;;;4.62;59.04
47716;BME280;33476;50.984;3.538;2023-01-29T03:20:11;103129.66;;;4.62;58.81
47716;BME280;33476;50.984;3.538;2023-01-29T03:22:43;103120.25;;;4.66;58.76
47716;BME280;33476;50.984;3.538;2023-01-29T03:25:10;103115.22;;;4.78;58.60
47716;BME280;33476;50.984;3.538;2023-01-29T03:28:01;103117.66;;;4.67;58.69
47716;BME280;33476;50.984;3.538;2023-01-29T03:30:50;103106.44;;;4.67;58.60
47716;BME280;33476;50.984;3.538;2023-01-29T03:33:43;103103.75;;;4.61;59.06
47716;BME280;33476;50.984;3.538;2023-01-29T03:36:17;103102.91;;;4.60;59.23
47716;BME280;33476;50.984;3.538;2023-01-29T03:38:45;103103.00;;;4.66;59.11
47716;BME280;33476;50.984;3.538;2023-01-29T03:41:18;103105.56;;;4.65;58.89
47716;BME280;33476;50.984;3.538;2023-01-29T03:43:56;103104.72;;;4.67;59.23
47716;BME280;33476;50.984;3.538;2023-01-29T03:46:32;103100.50;;;4.72;59.04
47716;BME280;33476;50.984;3.538;2023-01-29T03:49:14;103097.03;;;4.73;59.03
47716;BME280;33476;50.984;3.538;2023-01-29T03:51:59;103102.28;;;4.79;58.87
47716;BME280;33476;50.984;3.538;2023-01-29T03:55:16;103107.50;;;4.81;59.03
47716;BME280;33476;50.984;3.538;2023-01-29T03:57:59;103104.06;;;4.82;58.83
47716;BME280;33476;50.984;3.538;2023-01-29T04:00:33;103116.94;;;4.79;59.04
47716;BME280;33476;50.984;3.538;2023-01-29T04:03:21;103109.16;;;4.77;59.00
47716;BME280;33476;50.984;3.538;2023-01-29T04:05:53;103103.97;;;4.77;58.98
47716;BME280;33476;50.984;3.538;2023-01-29T04:08:27;103102.28;;;4.79;59.21
47716;BME280;33476;50.984;3.538;2023-01-29T04:10:56;103099.78;;;4.86;58.94
47716;BME280;33476;50.984;3.538;2023-01-29T04:13:23;103097.25;;;4.92;59.07
47716;BME280;33476;50.984;3.538;2023-01-29T04:15:54;103099.84;;;4.92;59.08
47716;BME280;33476;50.984;3.538;2023-01-29T04:18:20;103089.50;;;4.93;59.14
47716;BME280;33476;50.984;3.538;2023-01-29T04:20:46;103089.53;;;4.96;58.86
47716;BME280;33476;50.984;3.538;2023-01-29T04:23:23;103088.63;;;4.90;59.19
47716;BME280;33476;50.984;3.538;2023-01-29T04:28:58;103085.25;;;4.98;59.13
47716;BME280;33476;50.984;3.538;2023-01-29T04:31:33;103089.59;;;5.02;58.81
47716;BME280;33476;50.984;3.538;2023-01-29T04:34:20;103083.56;;;5.02;58.95
47716;BME280;33476;50.984;3.538;2023-01-29T04:39:57;103089.59;;;5.01;58.72
47716;BME280;33476;50.984;3.538;2023-01-29T04:45:49;103094.81;;;5.04;59.17
47716;BME280;33476;50.984;3.538;2023-01-29T04:48:38;103087.06;;;5.05;58.97
47716;BME280;33476;50.984;3.538;2023-01-29T04:51:23;103087.03;;;5.04;59.08
47716;BME280;33476;50.984;3.538;2023-01-29T04:53:57;103076.66;;;5.02;58.87
47716;BME280;33476;50.984;3.538;2023-01-29T04:59:00;103072.34;;;5.04;59.10
47716;BME280;33476;50.984;3.538;2023-01-29T05:01:29;103070.63;;;5.03;59.22
47716;BME280;33476;50.984;3.538;2023-01-29T05:03:59;103068.03;;;5.03;59.51
47716;BME280;33476;50.984;3.538;2023-01-29T05:06:26;103062.00;;;5.04;59.53
47716;BME280;33476;50.984;3.538;2023-01-29T05:08:54;103067.19;;;5.04;59.32
47716;BME280;33476;50.984;3.538;2023-01-29T05:11:22;103063.72;;;5.04;59.31
47716;BME280;33476;50.984;3.538;2023-01-29T05:13:49;103057.72;;;5.06;59.35
47716;BME280;33476;50.984;3.538;2023-01-29T05:16:21;103058.59;;;5.05;59.22
47716;BME280;33476;50.984;3.538;2023-01-29T05:18:47;103055.13;;;5.06;59.47
47716;BME280;33476;50.984;3.538;2023-01-29T05:21:13;103038.75;;;5.07;59.26
47716;BME280;33476;50.984;3.538;2023-01-29T05:23:38;103033.56;;;5.09;59.10
47716;BME280;33476;50.984;3.538;2023-01-29T05:26:04;103035.31;;;5.10;59.42
47716;BME280;33476;50.984;3.538;2023-01-29T05:28:30;103024.06;;;5.08;59.40
47716;BME280;33476;50.984;3.538;2023-01-29T05:30:55;103020.59;;;5.06;59.49
47716;BME280;33476;50.984;3.538;2023-01-29T05:33:24;103017.16;;;5.05;59.49
47716;BME280;33476;50.984;3.538;2023-01-29T05:35:50;103026.66;;;5.06;59.38
47716;BME280;33476;50.984;3.538;2023-01-29T05:38:17;103032.72;;;5.10;59.52
47716;BME280;33476;50.984;3.538;2023-01-29T05:40:43;103029.25;;;5.10;59.44
47716;BME280;33476;50.984;3.538;2023-01-29T05:43:20;103032.69;;;5.05;59.44
47716;BME280;33476;50.984;3.538;2023-01-29T05:46:06;103030.91;;;5.04;59.87
47716;BME280;33476;50.984;3.538;2023-01-29T05:48:31;103033.56;;;5.09;59.34
47716;BME280;33476;50.984;3.538;2023-01-29T05:51:01;103036.97;;;5.03;59.36
47716;BME280;33476;50.984;3.538;2023-01-29T05:53:30;103036.09;;;5.04;59.48
47716;BME280;33476;50.984;3.538;2023-01-29T05:56:00;103030.91;;;5.03;59.60
47716;BME280;33476;50.984;3.538;2023-01-29T05:58:25;103031.84;;;5.08;59.56
47716;BME280;33476;50.984;3.538;2023-01-29T06:00:50;103028.38;;;5.06;59.63
47716;BME280;33476;50.984;3.538;2023-01-29T06:03:16;103033.50;;;5.03;59.34
47716;BME280;33476;50.984;3.538;2023-01-29T06:05:41;103030.06;;;5.04;59.61
47716;BME280;33476;50.984;3.538;2023-01-29T06:08:07;103026.56;;;5.00;59.76
47716;BME280;33476;50.984;3.538;2023-01-29T06:10:32;103025.69;;;4.98;59.75
47716;BME280;33476;50.984;3.538;2023-01-29T06:12:58;103011.03;;;4.99;59.87
47716;BME280;33476;50.984;3.538;2023-01-29T06:15:23;103007.56;;;5.00;59.80
47716;BME280;33476;50.984;3.538;2023-01-29T06:17:52;103001.53;;;5.01;59.78
47716;BME280;33476;50.984;3.538;2023-01-29T06:20:18;103005.88;;;5.02;59.61
47716;BME280;33476;50.984;3.538;2023-01-29T06:22:43;103013.63;;;4.99;59.71
47716;BME280;33476;50.984;3.538;2023-01-29T06:25:08;103017.94;;;5.01;59.73
47716;BME280;33476;50.984;3.538;2023-01-29T06:27:34;103017.09;;;5.04;59.82
47716;BME280;33476;50.984;3.538;2023-01-29T06:29:59;103004.13;;;5.01;59.63
47716;BME280;33476;50.984;3.538;2023-01-29T06:32:24;103001.59;;;5.05;59.49
47716;BME280;33476;50.984;3.538;2023-01-29T06:34:50;103004.22;;;5.08;59.60
47716;BME280;33476;50.984;3.538;2023-01-29T06:37:17;103003.34;;;5.10;59.51
47716;BME280;33476;50.984;3.538;2023-01-29T06:39:42;103011.13;;;5.11;59.42
47716;BME280;33476;50.984;3.538;2023-01-29T06:42:08;103006.84;;;5.13;59.57
47716;BME280;33476;50.984;3.538;2023-01-29T06:44:34;103006.84;;;5.13;59.45
47716;BME280;33476;50.984;3.538;2023-01-29T06:46:59;103003.44;;;5.17;59.44
47716;BME280;33476;50.984;3.538;2023-01-29T06:49:24;102997.38;;;5.18;59.12
47716;BME280;33476;50.984;3.538;2023-01-29T06:51:50;102995.63;;;5.14;59.33
47716;BME280;33476;50.984;3.538;2023-01-29T06:54:15;102998.19;;;5.11;59.52
47716;BME280;33476;50.984;3.538;2023-01-29T06:56:40;102995.66;;;5.16;59.46
47716;BME280;33476;50.984;3.538;2023-01-29T06:59:06;102994.78;;;5.14;59.33
47716;BME280;33476;50.984;3.538;2023-01-29T07:01:31;102994.78;;;5.17;59.42
47716;BME280;33476;50.984;3.538;2023-01-29T07:03:56;102986.16;;;5.19;59.37
47716;BME280;33476;50.984;3.538;2023-01-29T07:06:27;102987.91;;;5.19;59.34
47716;BME280;33476;50.984;3.538;2023-01-29T07:08:52;102993.13;;;5.22;59.04
47716;BME280;33476;50.984;3.538;2023-01-29T07:11:17;102994.78;;;5.17;59.61
47716;BME280;33476;50.984;3.538;2023-01-29T07:13:43;102994.78;;;5.14;59.53
47716;BME280;33476;50.984;3.538;2023-01-29T07:16:08;102993.84;;;5.10;59.64
47716;BME280;33476;50.984;3.538;2023-01-29T07:18:34;102997.28;;;5.07;59.67
47716;BME280;33476;50.984;3.538;2023-01-29T07:21:03;103004.22;;;5.12;59.90
47716;BME280;33476;50.984;3.538;2023-01-29T07:23:29;103004.31;;;5.21;59.39
47716;BME280;33476;50.984;3.538;2023-01-29T07:25:54;103002.56;;;5.18;59.61
47716;BME280;33476;50.984;3.538;2023-01-29T07:28:20;103002.56;;;5.17;59.68
47716;BME280;33476;50.984;3.538;2023-01-29T07:30:45;103006.03;;;5.19;59.76
47716;BME280;33476;50.984;3.538;2023-01-29T07:33:10;103004.31;;;5.21;59.51
47716;BME280;33476;50.984;3.538;2023-01-29T07:35:37;103015.53;;;5.18;59.66
47716;BME280;33476;50.984;3.538;2023-01-29T07:38:03;103013.81;;;5.20;59.77
47716;BME280;33476;50.984;3.538;2023-01-29T07:40:28;103013.88;;;5.26;59.54
47716;BME280;33476;50.984;3.538;2023-01-29T07:43:01;103013.00;;;5.23;59.67
47716;BME280;33476;50.984;3.538;2023-01-29T07:45:28;103009.56;;;5.25;59.44
47716;BME280;33476;50.984;3.538;2023-01-29T07:47:54;103002.56;;;5.20;59.32
47716;BME280;33476;50.984;3.538;2023-01-29T07:50:24;103005.22;;;5.24;59.42
47716;BME280;33476;50.984;3.538;2023-01-29T07:52:50;103002.66;;;5.27;59.60
47716;BME280;33476;50.984;3.538;2023-01-29T07:55:16;103012.16;;;5.27;59.63
47716;BME280;33476;50.984;3.538;2023-01-29T07:57:42;103012.16;;;5.27;59.70
47716;BME280;33476;50.984;3.538;2023-01-29T08:00:09;103006.13;;;5.29;59.75
47716;BME280;33476;50.984;3.538;2023-01-29T08:02:35;103004.47;;;5.38;59.31
47716;BME280;33476;50.984;3.538;2023-01-29T08:05:00;103002.78;;;5.40;59.26
47716;BME280;33476;50.984;3.538;2023-01-29T08:07:26;103003.59;;;5.37;59.33
47716;BME280;33476;50.984;3.538;2023-01-29T08:09:51;103000.19;;;5.43;59.15
47716;BME280;33476;50.984;3.538;2023-01-29T08:12:16;102998.47;;;5.45;59.28
47716;BME280;33476;50.984;3.538;2023-01-29T08:14:42;102996.69;;;5.36;59.28
47716;BME280;33476;50.984;3.538;2023-01-29T08:17:07;103007.88;;;5.30;59.46
47716;BME280;33476;50.984;3.538;2023-01-29T08:19:32;103005.28;;;5.32;59.50
47716;BME280;33476;50.984;3.538;2023-01-29T08:21:58;102989.75;;;5.33;59.57
47716;BME280;33476;50.984;3.538;2023-01-29T08:24:23;102989.78;;;5.36;59.63
47716;BME280;33476;50.984;3.538;2023-01-29T08:26:49;102997.59;;;5.43;59.33
47716;BME280;33476;50.984;3.538;2023-01-29T08:29:14;102990.69;;;5.45;58.94
47716;BME280;33476;50.984;3.538;2023-01-29T08:31:39;103002.00;;;5.50;59.27
47716;BME280;33476;50.984;3.538;2023-01-29T08:34:05;103001.09;;;5.46;58.97
47716;BME280;33476;50.984;3.538;2023-01-29T08:36:30;103001.97;;;5.47;59.01
47716;BME280;33476;50.984;3.538;2023-01-29T08:38:55;103007.16;;;5.50;59.07
47716;BME280;33476;50.984;3.538;2023-01-29T08:41:21;103001.13;;;5.54;59.21
47716;BME280;33476;50.984;3.538;2023-01-29T08:43:46;103000.28;;;5.52;58.99
47716;BME280;33476;50.984;3.538;2023-01-29T08:46:11;103000.28;;;5.52;59.03
47716;BME280;33476;50.984;3.538;2023-01-29T08:48:37;102995.94;;;5.48;59.34
47716;BME280;33476;50.984;3.538;2023-01-29T08:51:02;103005.38;;;5.43;59.34
47716;BME280;33476;50.984;3.538;2023-01-29T08:53:29;103003.66;;;5.43;59.18
47716;BME280;33476;50.984;3.538;2023-01-29T08:55:54;103004.56;;;5.50;59.34
47716;BME280;33476;50.984;3.538;2023-01-29T08:58:20;103001.13;;;5.49;59.29
47716;BME280;33476;50.984;3.538;2023-01-29T09:00:45;103003.72;;;5.49;59.08
47716;BME280;33476;50.984;3.538;2023-01-29T09:03:11;103003.78;;;5.55;59.23
47716;BME280;33476;50.984;3.538;2023-01-29T09:05:37;103004.66;;;5.62;58.97
47716;BME280;33476;50.984;3.538;2023-01-29T09:08:04;102993.47;;;5.64;59.07
47716;BME280;33476;50.984;3.538;2023-01-29T09:10:29;102998.59;;;5.61;58.95
47716;BME280;33476;50.984;3.538;2023-01-29T09:12:54;103002.09;;;5.63;58.82
47716;BME280;33476;50.984;3.538;2023-01-29T09:15:20;102993.47;;;5.66;59.05
47716;BME280;33476;50.984;3.538;2023-01-29T09:17:45;102993.47;;;5.64;58.92
47716;BME280;33476;50.984;3.538;2023-01-29T09:20:13;102997.75;;;5.62;58.91
47716;BME280;33476;50.984;3.538;2023-01-29T09:22:38;102996.94;;;5.67;58.64
47716;BME280;33476;50.984;3.538;2023-01-29T09:25:04;102997.78;;;5.67;59.01
47716;BME280;33476;50.984;3.538;2023-01-29T09:27:29;102993.50;;;5.71;58.97
47716;BME280;33476;50.984;3.538;2023-01-29T09:29:54;102991.78;;;5.71;58.92
47716;BME280;33476;50.984;3.538;2023-01-29T09:32:19;102996.13;;;5.72;58.67
47716;BME280;33476;50.984;3.538;2023-01-29T09:34:45;102983.16;;;5.75;58.98
47716;BME280;33476;50.984;3.538;2023-01-29T09:37:10;102978.03;;;5.80;58.58
47716;BME280;33476;50.984;3.538;2023-01-29T09:39:35;102978.91;;;5.83;58.87
47716;BME280;33476;50.984;3.538;2023-01-29T09:44:44;102973.69;;;5.82;58.75
47716;BME280;33476;50.984;3.538;2023-01-29T09:47:13;102969.38;;;5.79;58.82
47716;BME280;33476;50.984;3.538;2023-01-29T09:49:46;102965.00;;;5.74;58.52
47716;BME280;33476;50.984;3.538;2023-01-29T09:52:26;102970.16;;;5.68;59.01
47716;BME280;33476;50.984;3.538;2023-01-29T09:57:38;102968.47;;;5.71;58.95
47716;BME280;33476;50.984;3.538;2023-01-29T10:00:06;102971.06;;;5.73;59.18
47716;BME280;33476;50.984;3.538;2023-01-29T10:02:46;102964.16;;;5.78;58.60
47716;BME280;33476;50.984;3.538;2023-01-29T10:05:32;102970.19;;;5.75;58.96
47716;BME280;33476;50.984;3.538;2023-01-29T10:11:24;102969.34;;;5.76;59.12
47716;BME280;33476;50.984;3.538;2023-01-29T10:14:05;102973.72;;;5.86;58.83
47716;BME280;33476;50.984;3.538;2023-01-29T10:16:54;102972.84;;;5.80;58.80
47716;BME280;33476;50.984;3.538;2023-01-29T10:22:27;102974.63;;;5.90;58.13
47716;BME280;33476;50.984;3.538;2023-01-29T10:25:03;102975.47;;;5.89;58.74
47716;BME280;33476;50.984;3.538;2023-01-29T10:27:32;102974.66;;;5.91;58.86
47716;BME280;33476;50.984;3.538;2023-01-29T10:29:59;102980.72;;;5.90;58.75
47716;BME280;33476;50.984;3.538;2023-01-29T10:32:27;102976.38;;;5.96;58.60
47716;BME280;33476;50.984;3.538;2023-01-29T10:34:58;102978.13;;;5.95;58.57
47716;BME280;33476;50.984;3.538;2023-01-29T10:37:42;102974.66;;;5.95;58.46
47716;BME280;33476;50.984;3.538;2023-01-29T10:40:38;102972.97;;;5.97;58.74
47716;BME280;33476;50.984;3.538;2023-01-29T10:43:28;102969.47;;;5.93;58.84
47716;BME280;33476;50.984;3.538;2023-01-29T10:46:22;102965.19;;;5.97;58.38
47716;BME280;33476;50.984;3.538;2023-01-29T10:54:13;102950.56;;;6.14;58.03
47716;BME280;33476;50.984;3.538;2023-01-29T11:00:25;102937.63;;;6.23;58.18
47716;BME280;33476;50.984;3.538;2023-01-29T11:02:25;102935.91;;;6.27;57.83
47716;BME280;33476;50.984;3.538;2023-01-29T11:04:50;102924.69;;;6.31;57.79
47716;BME280;33476;50.984;3.538;2023-01-29T11:07:17;102921.19;;;6.29;57.75
47716;BME280;33476;50.984;3.538;2023-01-29T11:10:07;102907.34;;;6.22;58.01
47716;BME280;33476;50.984;3.538;2023-01-29T11:12:35;102903.03;;;6.23;57.65
47716;BME280;33476;50.984;3.538;2023-01-29T11:15:28;102895.25;;;6.26;57.76
47716;BME280;33476;50.984;3.538;2023-01-29T11:18:03;102882.28;;;6.27;57.84
47716;BME280;33476;50.984;3.538;2023-01-29T11:20:31;102884.03;;;6.33;57.54
47716;BME280;33476;50.984;3.538;2023-01-29T11:22:56;102878.00;;;6.40;57.30
47716;BME280;33476;50.984;3.538;2023-01-29T11:25:23;102871.09;;;6.50;57.10
47716;BME280;33476;50.984;3.538;2023-01-29T11:27:53;102848.59;;;6.61;57.03
47716;BME280;33476;50.984;3.538;2023-01-29T11:30:22;102859.84;;;6.66;56.71
47716;BME280;33476;50.984;3.538;2023-01-29T11:32:51;102864.19;;;6.64;57.04
47716;BME280;33476;50.984;3.538;2023-01-29T11:35:23;102852.06;;;6.66;56.58
47716;BME280;33476;50.984;3.538;2023-01-29T11:37:49;102851.19;;;6.70;56.41
47716;BME280;33476;50.984;3.538;2023-01-29T11:42:43;102840.81;;;6.62;56.68
47716;BME280;33476;50.984;3.538;2023-01-29T11:45:25;102849.47;;;6.60;57.11
47716;BME280;33476;50.984;3.538;2023-01-29T11:47:53;102855.53;;;6.69;56.61
47716;BME280;33476;50.984;3.538;2023-01-29T11:50:22;102848.59;;;6.65;56.80
47716;BME280;33476;50.984;3.538;2023-01-29T11:52:48;102854.66;;;6.67;56.96
47716;BME280;33476;50.984;3.538;2023-01-29T11:55:19;102848.59;;;6.67;56.28
47716;BME280;33476;50.984;3.538;2023-01-29T11:57:58;102850.31;;;6.69;56.76
47716;BME280;33476;50.984;3.538;2023-01-29T12:00:27;102843.41;;;6.76;57.00
47716;BME280;33476;50.984;3.538;2023-01-29T12:03:05;102842.56;;;6.74;56.83
47716;BME280;33476;50.984;3.538;2023-01-29T12:05:37;102830.44;;;6.82;56.24
47716;BME280;33476;50.984;3.538;2023-01-29T12:08:14;102828.69;;;6.84;56.70
47716;BME280;33476;50.984;3.538;2023-01-29T12:10:41;102822.63;;;6.90;56.71
47716;BME280;33476;50.984;3.538;2023-01-29T12:15:44;102819.16;;;6.85;56.96
47716;BME280;33476;50.984;3.538;2023-01-29T12:18:35;102808.81;;;6.80;56.80
47716;BME280;33476;50.984;3.538;2023-01-29T12:21:14;102811.41;;;6.80;56.89
47716;BME280;33476;50.984;3.538;2023-01-29T12:24:10;102801.84;;;6.78;56.58
47716;BME280;33476;50.984;3.538;2023-01-29T12:26:44;102804.47;;;6.73;56.93
47716;BME280;33476;50.984;3.538;2023-01-29T12:32:42;102788.00;;;6.66;57.50
47716;BME280;33476;50.984;3.538;2023-01-29T12:35:23;102788.03;;;6.72;56.62
47716;BME280;33476;50.984;3.538;2023-01-29T12:40:24;102777.63;;;6.74;56.59
47716;BME280;33476;50.984;3.538;2023-01-29T12:42:55;102763.78;;;6.76;56.81
47716;BME280;33476;50.984;3.538;2023-01-29T12:45:24;102762.91;;;6.78;56.82
47716;BME280;33476;50.984;3.538;2023-01-29T12:47:54;102747.34;;;6.81;56.93
47716;BME280;33476;50.984;3.538;2023-01-29T12:50:30;102742.13;;;6.81;57.04
47716;BME280;33476;50.984;3.538;2023-01-29T12:55:46;102729.13;;;6.82;56.67
47716;BME280;33476;50.984;3.538;2023-01-29T13:00:56;102718.78;;;6.79;57.42
47716;BME280;33476;50.984;3.538;2023-01-29T13:03:38;102713.56;;;6.79;57.20
47716;BME280;33476;50.984;3.538;2023-01-29T13:06:11;102709.22;;;6.78;56.96
47716;BME280;33476;50.984;3.538;2023-01-29T13:08:54;102704.94;;;6.71;57.19
47716;BME280;33476;50.984;3.538;2023-01-29T13:14:18;102688.50;;;6.64;57.13
47716;BME280;33476;50.984;3.538;2023-01-29T13:16:49;102688.44;;;6.78;57.76
47716;BME280;33476;50.984;3.538;2023-01-29T13:21:49;102674.56;;;6.96;56.58
47716;BME280;33476;50.984;3.538;2023-01-29T13:24:20;102671.94;;;6.94;56.97
47716;BME280;33476;50.984;3.538;2023-01-29T13:26:47;102672.78;;;7.02;57.00
47716;BME280;33476;50.984;3.538;2023-01-29T13:29:24;102658.91;;;7.08;57.17
47716;BME280;33476;50.984;3.538;2023-01-29T13:32:02;102665.84;;;7.09;56.70
47716;BME280;33476;50.984;3.538;2023-01-29T13:34:31;102662.34;;;7.18;56.29
47716;BME280;33476;50.984;3.538;2023-01-29T13:37:00;102664.06;;;7.19;56.37
47716;BME280;33476;50.984;3.538;2023-01-29T13:39:28;102655.44;;;7.14;56.73
47716;BME280;33476;50.984;3.538;2023-01-29T13:41:56;102660.63;;;7.11;57.10
47716;BME280;33476;50.984;3.538;2023-01-29T13:44:25;102652.88;;;7.04;56.96
47716;BME280;33476;50.984;3.538;2023-01-29T13:47:00;102648.53;;;7.07;56.79
47716;BME280;33476;50.984;3.538;2023-01-29T13:51:58;102650.25;;;7.11;57.33
47716;BME280;33476;50.984;3.538;2023-01-29T13:54:36;102643.31;;;7.11;57.44
47716;BME280;33476;50.984;3.538;2023-01-29T13:57:01;102641.59;;;7.13;56.87
47716;BME280;33476;50.984;3.538;2023-01-29T13:59:52;102631.19;;;7.09;57.33
47716;BME280;33476;50.984;3.538;2023-01-29T14:02:27;102641.59;;;7.10;57.28
47716;BME280;33476;50.984;3.538;2023-01-29T14:07:50;102632.91;;;7.17;57.44
47716;BME280;33476;50.984;3.538;2023-01-29T14:10:19;102631.16;;;7.18;57.25
47716;BME280;33476;50.984;3.538;2023-01-29T14:12:46;102629.41;;;7.24;56.95
47716;BME280;33476;50.984;3.538;2023-01-29T14:20:36;102625.03;;;7.26;57.29
47716;BME280;33476;50.984;3.538;2023-01-29T14:23:03;102624.19;;;7.30;57.01
47716;BME280;33476;50.984;3.538;2023-01-29T14:25:36;102626.81;;;7.23;57.38
47716;BME280;33476;50.984;3.538;2023-01-29T14:28:03;102615.56;;;7.19;57.28
47716;BME280;33476;50.984;3.538;2023-01-29T14:30:38;102610.34;;;7.24;57.14
47716;BME280;33476;50.984;3.538;2023-01-29T14:33:05;102616.44;;;7.21;57.26
47716;BME280;33476;50.984;3.538;2023-01-29T14:35:50;102596.53;;;7.16;57.42
47716;BME280;33476;50.984;3.538;2023-01-29T14:38:17;102603.44;;;7.21;57.71
47716;BME280;33476;50.984;3.538;2023-01-29T14:40:45;102603.44;;;7.18;57.30
47716;BME280;33476;50.984;3.538;2023-01-29T14:43:29;102607.81;;;7.09;57.86
47716;BME280;33476;50.984;3.538;2023-01-29T14:52:37;102599.13;;;7.20;57.41